Dan Fighter — OVUE2 — position and weather

sailwx.info

Track history (hours):
 
Tides and Currents Weather Stations Pressure Air Temp Water Temp Dewpoint Dewpoint Depression Visibility Wind Speed Wind Dir Waves Ship Positions

Dan Fighter

Last reported at 2018-Jan-06 03:23 UTC. Time now 2018-Feb-22 03:11 UTC.
Position N 55°59' E 016°34'.
Warning: this ship's position is 46 days out of date.

Length 64 m; draft 3.1 m.

Type: Cargo ship. MMSI: 220386978.

Date/timePositionNaut miles runAvg speedWind from/ knotsBaromVisibWave heightAir tempDewpointWater temp
2018-Jan-06 03:23N 55°59' E 016°34'3 9.3
2018-Jan-06 03:00N 55°57' E 016°28'5 9.2
2018-Jan-06 02:30N 55°55' E 016°21'5 9.4
2018-Jan-06 02:00N 55°53' E 016°14'5 9.5
2018-Jan-06 01:30N 55°50' E 016°07'5 9.5
2018-Jan-06 01:00N 55°48' E 015°59'6 9.5
2018-Jan-06 00:22N 55°45' E 015°50'3 9.5
2018-Jan-06 00:00N 55°43' E 015°45'16 9.4
2018-Jan-05 22:16N 55°36' E 015°19'3 9.4
2018-Jan-05 21:59N 55°34' E 015°15'5 9.6
2018-Jan-05 21:26N 55°32' E 015°07'5 9.6
2018-Jan-05 20:56N 55°29' E 014°59'4 9.6
2018-Jan-05 20:30N 55°27' E 014°53'5 9.5
2018-Jan-05 20:00N 55°25' E 014°46'5 9.3
2018-Jan-05 19:30N 55°22' E 014°39'5 9.1
2018-Jan-05 19:00N 55°19' E 014°33'4 8.9
2018-Jan-05 18:30N 55°16' E 014°28'4 8.9
2018-Jan-05 18:00N 55°12' E 014°23'4 8.7
2018-Jan-05 17:30N 55°10' E 014°17'5 8.4
2018-Jan-05 16:56N 55°10' E 014°08'5 9.2
2018-Jan-05 16:26N 55°11' E 014°00'5 9.1
2018-Jan-05 15:51N 55°11' E 013°51'4 9.0
2018-Jan-05 15:25N 55°11' E 013°44'22 9.4
2018-Jan-05 13:06N 55°14' E 013°06'1 9.7
2018-Jan-05 13:00N 55°14' E 013°05'5 9.5
2018-Jan-05 12:30N 55°14' E 012°56'5 9.3
2018-Jan-05 11:59N 55°16' E 012°48'4 9.4
2018-Jan-05 11:30N 55°17' E 012°41'4 8.4
2018-Jan-05 11:00N 55°21' E 012°38'5 9.7
2018-Jan-05 10:30N 55°26' E 012°39'5 9.3
2018-Jan-05 10:00N 55°30' E 012°41'5 9.0
2018-Jan-05 09:30N 55°35' E 012°42'4 8.5
2018-Jan-05 09:00N 55°39' E 012°41'4 8.4
2018-Jan-05 08:30N 55°43' E 012°41'4 8.3
2018-Jan-05 08:00N 55°47' E 012°41'4 8.3
2018-Jan-05 07:30N 55°51' E 012°40'4 8.4
2018-Jan-05 07:00N 55°56' E 012°38'4 8.6
2018-Jan-05 06:30N 55°60' E 012°38'4 7.5
2018-Jan-05 06:00N 56°04' E 012°38'3 6.4
2018-Jan-05 05:30N 56°06' E 012°33'3 6.9
2018-Jan-05 05:00N 56°08' E 012°28'5 9.4
2018-Jan-05 04:30N 56°10' E 012°21'5 9.4
2018-Jan-05 04:00N 56°13' E 012°15'92 8.7
2018-Jan-04 17:29N 57°26' E 010°33'0 0.5
2018-Jan-04 16:50N 57°27' E 010°33'0 0.1
2018-Jan-04 16:08N 57°26' E 010°33'0 0.0
2018-Jan-04 15:32N 57°26' E 010°33'0 0.0
2018-Jan-04 15:14N 57°26' E 010°33'0 0.0
2018-Jan-04 14:24N 57°26' E 010°33'0 0.4
2018-Jan-04 14:00N 57°26' E 010°33'2 4.7
2018-Jan-04 13:30N 57°25' E 010°36'4 8.0
2018-Jan-04 13:00N 57°21' E 010°40'4 0.2
2018-Jan-03 09:58N 57°18' E 010°45'4 8.4
2018-Jan-03 09:30N 57°21' E 010°50'4 8.6
2018-Jan-03 09:00N 57°24' E 010°55'4 8.0
2018-Jan-03 08:30N 57°27' E 011°02'4 8.9
2018-Jan-03 08:00N 57°28' E 011°10'4 8.9
2018-Jan-03 07:31N 57°27' E 011°18'510.7
2018-Jan-03 07:00N 57°22' E 011°23'510.2
2018-Jan-03 06:30N 57°18' E 011°28'1 2.5
2018-Jan-03 06:01N 57°17' E 011°27'1 1.5
2018-Jan-03 05:30N 57°18' E 011°26'1 2.2
2018-Jan-03 05:00N 57°18' E 011°25'2 3.1
2018-Jan-03 04:30N 57°20' E 011°24'2 4.5
2018-Jan-03 04:00N 57°22' E 011°22'3 5.1
2018-Jan-03 03:30N 57°25' E 011°21'3 5.6
2018-Jan-03 03:00N 57°27' E 011°19'3 6.7
2018-Jan-03 02:30N 57°29' E 011°14'4 7.6
2018-Jan-03 02:00N 57°32' E 011°09'4 7.5
2018-Jan-03 01:30N 57°35' E 011°04'4 7.6
2018-Jan-03 01:00N 57°38' E 010°60'4 7.8
2018-Jan-03 00:30N 57°41' E 010°55'4 8.2
2018-Jan-03 00:00N 57°43' E 010°49'4 8.1
2018-Jan-02 23:30N 57°46' E 010°44'4 8.5
2018-Jan-02 23:00N 57°47' E 010°36'5 9.5
2018-Jan-02 22:30N 57°49' E 010°28'4 8.1
2018-Jan-02 22:00N 57°51' E 010°21'40 8.2
2018-Jan-02 17:08N 58°04' E 009°11'1 8.0
2018-Jan-02 16:58N 58°05' E 009°08'4 8.0
2018-Jan-02 16:30N 58°06' E 009°02'4 7.8
2018-Jan-02 16:00N 58°07' E 008°55'4 7.3
2018-Jan-02 15:30N 58°08' E 008°48'4 7.2
2018-Jan-02 15:00N 58°10' E 008°42'4 7.9
2018-Jan-02 14:30N 58°11' E 008°35'4 8.1
2018-Jan-02 14:00N 58°13' E 008°27'3 5.9
2018-Jan-02 13:28N 58°15' E 008°23'0 0.0
2018-Jan-02 12:22N 58°15' E 008°23'0 0.0
2018-Jan-02 11:36N 58°15' E 008°23'0 0.0
2018-Jan-02 09:20N 58°15' E 008°23'0 0.0
2018-Jan-02 08:22N 58°15' E 008°23'0 0.0
2018-Jan-02 08:00N 58°15' E 008°23'0 0.0
2018-Jan-02 07:30N 58°15' E 008°23'0 0.0
2018-Jan-02 07:00N 58°15' E 008°23'0 0.6
2018-Jan-02 06:30N 58°14' E 008°23'0 0.2
2018-Jan-02 06:00N 58°14' E 008°23'2 4.3
2018-Jan-02 05:30N 58°13' E 008°26'8 7.6
2018-Jan-02 04:30N 58°06' E 008°18'4 8.2
2018-Jan-02 04:00N 58°04' E 008°13'4 8.1
2018-Jan-02 03:30N 58°02' E 008°06'4 8.4
2018-Jan-02 03:00N 58°01' E 007°58'4 8.7
2018-Jan-02 02:30N 57°59' E 007°51'4 8.8
2018-Jan-02 02:00N 57°57' E 007°43'5 9.4
2018-Jan-02 01:30N 57°56' E 007°34'5 9.4
2018-Jan-02 01:00N 57°56' E 007°26'4 8.8
2018-Jan-02 00:30N 57°56' E 007°17'4 8.4
2018-Jan-02 00:00N 57°56' E 007°09'4 8.1
2018-Jan-01 23:30N 57°57' E 007°02'4 7.9
2018-Jan-01 23:00N 57°57' E 006°55'4 7.7
2018-Jan-01 22:30N 57°58' E 006°48'4 7.5
2018-Jan-01 22:00N 57°58' E 006°41'4 7.5
2018-Jan-01 21:30N 57°59' E 006°34'4 7.3
2018-Jan-01 21:00N 57°60' E 006°27'4 7.1
2018-Jan-01 20:30N 58°00' E 006°20'4 7.3
2018-Jan-01 20:00N 58°01' E 006°13'4 7.1
2018-Jan-01 19:30N 58°01' E 006°07'4 7.3
2018-Jan-01 19:00N 58°01' E 005°60'277 7.2
2017-Dec-31 04:50N 58°42' W 002°42'3 9.0
2017-Dec-31 04:30N 58°42' W 002°48'5 9.2
2017-Dec-31 04:00N 58°43' W 002°56'4 8.9
2017-Dec-31 03:30N 58°43' W 003°05'5 8.4
2017-Dec-31 02:53N 58°43' W 003°15'3 7.2
2017-Dec-31 02:30N 58°43' W 003°20'3 7.0
2017-Dec-31 02:00N 58°42' W 003°27'57 7.8
2017-Dec-30 18:46N 58°30' W 005°13'3 9.5
2017-Dec-30 18:29N 58°28' W 005°16'50 9.6
2017-Dec-30 13:19N 57°43' W 005°54'9 9.1
2017-Dec-30 12:17N 57°33' W 005°54'3 9.4
2017-Dec-30 11:59N 57°31' W 005°54'5 9.4
2017-Dec-30 11:30N 57°26' W 005°54'5 9.5
2017-Dec-30 11:00N 57°21' W 005°53'5 9.1
2017-Dec-30 10:29N 57°18' W 005°47'5 9.1
2017-Dec-30 09:58N 57°16' W 005°39'4 7.0
2017-Dec-30 09:21N 57°12' W 005°40'90 2.6
2017-Dec-28 22:34N 55°43' W 005°60'1 7.0
2017-Dec-28 22:28N 55°42' W 005°59'3 7.3
2017-Dec-28 22:00N 55°39' W 005°58'4 7.3
2017-Dec-28 21:29N 55°35' W 005°57'6 7.8
2017-Dec-28 20:40N 55°29' W 005°56'1 8.5
2017-Dec-28 20:30N 55°27' W 005°56'5 9.4
2017-Dec-28 20:00N 55°22' W 005°54'4 8.9
2017-Dec-28 19:30N 55°18' W 005°53'4 8.3
2017-Dec-28 19:00N 55°14' W 005°51'5 7.7
2017-Dec-28 18:22N 55°09' W 005°48'13 6.8
2017-Dec-28 16:30N 54°57' W 005°42'3 6.9
2017-Dec-28 16:00N 54°54' W 005°41'3 6.4
2017-Dec-28 15:30N 54°51' W 005°40'3 6.1
2017-Dec-28 15:00N 54°48' W 005°40'3 6.3
2017-Dec-28 14:30N 54°45' W 005°41'2 4.8
2017-Dec-28 14:00N 54°43' W 005°45'0 0.0
2017-Dec-28 13:30N 54°43' W 005°45'0 0.0
2017-Dec-28 13:00N 54°43' W 005°45'0 0.0
2017-Dec-28 12:30N 54°43' W 005°45'0 0.0
2017-Dec-28 12:00N 54°43' W 005°45'0 0.0
2017-Dec-28 11:30N 54°43' W 005°45'0 0.0
2017-Dec-28 11:00N 54°43' W 005°45'0 0.0
2017-Dec-28 10:30N 54°43' W 005°45'0 0.0
2017-Dec-28 10:00N 54°43' W 005°45'0 0.0
2017-Dec-28 09:30N 54°43' W 005°45'0 0.0
2017-Dec-28 09:00N 54°43' W 005°45'0 0.0
2017-Dec-28 08:30N 54°43' W 005°45'0 0.0
2017-Dec-28 08:00N 54°43' W 005°45'0 0.0
2017-Dec-28 07:30N 54°43' W 005°45'0 0.6
2017-Dec-28 07:00N 54°43' W 005°44'3 5.1
2017-Dec-28 06:30N 54°45' W 005°41'3 5.9
2017-Dec-28 06:00N 54°48' W 005°40'5 9.1
2017-Dec-28 05:30N 54°52' W 005°40'13 9.5
2017-Dec-28 04:10N 55°05' W 005°45'2 9.9
2017-Dec-28 04:00N 55°06' W 005°45'510.0
2017-Dec-28 03:30N 55°11' W 005°47'5 9.9
2017-Dec-28 03:00N 55°16' W 005°49'510.9
2017-Dec-28 02:30N 55°21' W 005°52'5 9.8
2017-Dec-28 02:00N 55°26' W 005°54'5 9.2
2017-Dec-28 01:30N 55°30' W 005°56'4 9.0
2017-Dec-28 01:00N 55°35' W 005°57'5 9.1
2017-Dec-28 00:30N 55°39' W 005°59'6 9.3
2017-Dec-27 23:53N 55°45' W 006°01'47 8.4
2017-Dec-27 18:14N 56°30' W 005°36'3 9.3
2017-Dec-27 17:58N 56°32' W 005°33'5 9.4
2017-Dec-27 17:28N 56°36' W 005°27'4 9.4
2017-Dec-27 17:00N 56°39' W 005°22'510.0
2017-Dec-27 16:30N 56°42' W 005°15'510.1
2017-Dec-27 16:00N 56°47' W 005°11'  
Track history (hours):
 
Tides and Currents Weather Stations Pressure Air Temp Water Temp Dewpoint Dewpoint Depression Visibility Wind Speed Wind Dir Waves Ship Positions

Dan Fighter

Last reported at 2018-Jan-06 03:23 UTC. Time now 2018-Feb-22 03:11 UTC.
Position N 55°59' E 016°34'.
Warning: this ship's position is 46 days out of date.

Length 64 m; draft 3.1 m.

Type: Cargo ship. MMSI: 220386978.

Date/timePositionNaut miles runAvg speedWind from/ knotsBaromVisibWave heightAir tempDewpointWater temp
2018-Jan-06 03:23N 55°59' E 016°34'3 9.3
2018-Jan-06 03:00N 55°57' E 016°28'5 9.2
2018-Jan-06 02:30N 55°55' E 016°21'5 9.4
2018-Jan-06 02:00N 55°53' E 016°14'5 9.5
2018-Jan-06 01:30N 55°50' E 016°07'5 9.5
2018-Jan-06 01:00N 55°48' E 015°59'6 9.5
2018-Jan-06 00:22N 55°45' E 015°50'3 9.5
2018-Jan-06 00:00N 55°43' E 015°45'16 9.4
2018-Jan-05 22:16N 55°36' E 015°19'3 9.4
2018-Jan-05 21:59N 55°34' E 015°15'5 9.6
2018-Jan-05 21:26N 55°32' E 015°07'5 9.6
2018-Jan-05 20:56N 55°29' E 014°59'4 9.6
2018-Jan-05 20:30N 55°27' E 014°53'5 9.5
2018-Jan-05 20:00N 55°25' E 014°46'5 9.3
2018-Jan-05 19:30N 55°22' E 014°39'5 9.1
2018-Jan-05 19:00N 55°19' E 014°33'4 8.9
2018-Jan-05 18:30N 55°16' E 014°28'4 8.9
2018-Jan-05 18:00N 55°12' E 014°23'4 8.7
2018-Jan-05 17:30N 55°10' E 014°17'5 8.4
2018-Jan-05 16:56N 55°10' E 014°08'5 9.2
2018-Jan-05 16:26N 55°11' E 014°00'5 9.1
2018-Jan-05 15:51N 55°11' E 013°51'4 9.0
2018-Jan-05 15:25N 55°11' E 013°44'22 9.4
2018-Jan-05 13:06N 55°14' E 013°06'1 9.7
2018-Jan-05 13:00N 55°14' E 013°05'5 9.5
2018-Jan-05 12:30N 55°14' E 012°56'5 9.3
2018-Jan-05 11:59N 55°16' E 012°48'4 9.4
2018-Jan-05 11:30N 55°17' E 012°41'4 8.4
2018-Jan-05 11:00N 55°21' E 012°38'5 9.7
2018-Jan-05 10:30N 55°26' E 012°39'5 9.3
2018-Jan-05 10:00N 55°30' E 012°41'5 9.0
2018-Jan-05 09:30N 55°35' E 012°42'4 8.5
2018-Jan-05 09:00N 55°39' E 012°41'4 8.4
2018-Jan-05 08:30N 55°43' E 012°41'4 8.3
2018-Jan-05 08:00N 55°47' E 012°41'4 8.3
2018-Jan-05 07:30N 55°51' E 012°40'4 8.4
2018-Jan-05 07:00N 55°56' E 012°38'4 8.6
2018-Jan-05 06:30N 55°60' E 012°38'4 7.5
2018-Jan-05 06:00N 56°04' E 012°38'3 6.4
2018-Jan-05 05:30N 56°06' E 012°33'3 6.9
2018-Jan-05 05:00N 56°08' E 012°28'5 9.4
2018-Jan-05 04:30N 56°10' E 012°21'5 9.4
2018-Jan-05 04:00N 56°13' E 012°15'92 8.7
2018-Jan-04 17:29N 57°26' E 010°33'0 0.5
2018-Jan-04 16:50N 57°27' E 010°33'0 0.1
2018-Jan-04 16:08N 57°26' E 010°33'0 0.0
2018-Jan-04 15:32N 57°26' E 010°33'0 0.0
2018-Jan-04 15:14N 57°26' E 010°33'0 0.0
2018-Jan-04 14:24N 57°26' E 010°33'0 0.4
2018-Jan-04 14:00N 57°26' E 010°33'2 4.7
2018-Jan-04 13:30N 57°25' E 010°36'4 8.0
2018-Jan-04 13:00N 57°21' E 010°40'4 0.2
2018-Jan-03 09:58N 57°18' E 010°45'4 8.4
2018-Jan-03 09:30N 57°21' E 010°50'4 8.6
2018-Jan-03 09:00N 57°24' E 010°55'4 8.0
2018-Jan-03 08:30N 57°27' E 011°02'4 8.9
2018-Jan-03 08:00N 57°28' E 011°10'4 8.9
2018-Jan-03 07:31N 57°27' E 011°18'510.7
2018-Jan-03 07:00N 57°22' E 011°23'510.2
2018-Jan-03 06:30N 57°18' E 011°28'1 2.5
2018-Jan-03 06:01N 57°17' E 011°27'1 1.5
2018-Jan-03 05:30N 57°18' E 011°26'1 2.2
2018-Jan-03 05:00N 57°18' E 011°25'2 3.1
2018-Jan-03 04:30N 57°20' E 011°24'2 4.5
2018-Jan-03 04:00N 57°22' E 011°22'3 5.1
2018-Jan-03 03:30N 57°25' E 011°21'3 5.6
2018-Jan-03 03:00N 57°27' E 011°19'3 6.7
2018-Jan-03 02:30N 57°29' E 011°14'4 7.6
2018-Jan-03 02:00N 57°32' E 011°09'4 7.5
2018-Jan-03 01:30N 57°35' E 011°04'4 7.6
2018-Jan-03 01:00N 57°38' E 010°60'4 7.8
2018-Jan-03 00:30N 57°41' E 010°55'4 8.2
2018-Jan-03 00:00N 57°43' E 010°49'4 8.1
2018-Jan-02 23:30N 57°46' E 010°44'4 8.5
2018-Jan-02 23:00N 57°47' E 010°36'5 9.5
2018-Jan-02 22:30N 57°49' E 010°28'4 8.1
2018-Jan-02 22:00N 57°51' E 010°21'40 8.2
2018-Jan-02 17:08N 58°04' E 009°11'1 8.0
2018-Jan-02 16:58N 58°05' E 009°08'4 8.0
2018-Jan-02 16:30N 58°06' E 009°02'4 7.8
2018-Jan-02 16:00N 58°07' E 008°55'4 7.3
2018-Jan-02 15:30N 58°08' E 008°48'4 7.2
2018-Jan-02 15:00N 58°10' E 008°42'4 7.9
2018-Jan-02 14:30N 58°11' E 008°35'4 8.1
2018-Jan-02 14:00N 58°13' E 008°27'3 5.9
2018-Jan-02 13:28N 58°15' E 008°23'0 0.0
2018-Jan-02 12:22N 58°15' E 008°23'0 0.0
2018-Jan-02 11:36N 58°15' E 008°23'0 0.0
2018-Jan-02 09:20N 58°15' E 008°23'0 0.0
2018-Jan-02 08:22N 58°15' E 008°23'0 0.0
2018-Jan-02 08:00N 58°15' E 008°23'0 0.0
2018-Jan-02 07:30N 58°15' E 008°23'0 0.0
2018-Jan-02 07:00N 58°15' E 008°23'0 0.6
2018-Jan-02 06:30N 58°14' E 008°23'0 0.2
2018-Jan-02 06:00N 58°14' E 008°23'2 4.3
2018-Jan-02 05:30N 58°13' E 008°26'8 7.6
2018-Jan-02 04:30N 58°06' E 008°18'4 8.2
2018-Jan-02 04:00N 58°04' E 008°13'4 8.1
2018-Jan-02 03:30N 58°02' E 008°06'4 8.4
2018-Jan-02 03:00N 58°01' E 007°58'4 8.7
2018-Jan-02 02:30N 57°59' E 007°51'4 8.8
2018-Jan-02 02:00N 57°57' E 007°43'5 9.4
2018-Jan-02 01:30N 57°56' E 007°34'5 9.4
2018-Jan-02 01:00N 57°56' E 007°26'4 8.8
2018-Jan-02 00:30N 57°56' E 007°17'4 8.4
2018-Jan-02 00:00N 57°56' E 007°09'4 8.1
2018-Jan-01 23:30N 57°57' E 007°02'4 7.9
2018-Jan-01 23:00N 57°57' E 006°55'4 7.7
2018-Jan-01 22:30N 57°58' E 006°48'4 7.5
2018-Jan-01 22:00N 57°58' E 006°41'4 7.5
2018-Jan-01 21:30N 57°59' E 006°34'4 7.3
2018-Jan-01 21:00N 57°60' E 006°27'4 7.1
2018-Jan-01 20:30N 58°00' E 006°20'4 7.3
2018-Jan-01 20:00N 58°01' E 006°13'4 7.1
2018-Jan-01 19:30N 58°01' E 006°07'4 7.3
2018-Jan-01 19:00N 58°01' E 005°60'277 7.2
2017-Dec-31 04:50N 58°42' W 002°42'3 9.0
2017-Dec-31 04:30N 58°42' W 002°48'5 9.2
2017-Dec-31 04:00N 58°43' W 002°56'4 8.9
2017-Dec-31 03:30N 58°43' W 003°05'5 8.4
2017-Dec-31 02:53N 58°43' W 003°15'3 7.2
2017-Dec-31 02:30N 58°43' W 003°20'3 7.0
2017-Dec-31 02:00N 58°42' W 003°27'57 7.8
2017-Dec-30 18:46N 58°30' W 005°13'3 9.5
2017-Dec-30 18:29N 58°28' W 005°16'50 9.6
2017-Dec-30 13:19N 57°43' W 005°54'9 9.1
2017-Dec-30 12:17N 57°33' W 005°54'3 9.4
2017-Dec-30 11:59N 57°31' W 005°54'5 9.4
2017-Dec-30 11:30N 57°26' W 005°54'5 9.5
2017-Dec-30 11:00N 57°21' W 005°53'5 9.1
2017-Dec-30 10:29N 57°18' W 005°47'5 9.1
2017-Dec-30 09:58N 57°16' W 005°39'4 7.0
2017-Dec-30 09:21N 57°12' W 005°40'90 2.6
2017-Dec-28 22:34N 55°43' W 005°60'1 7.0
2017-Dec-28 22:28N 55°42' W 005°59'3 7.3
2017-Dec-28 22:00N 55°39' W 005°58'4 7.3
2017-Dec-28 21:29N 55°35' W 005°57'6 7.8
2017-Dec-28 20:40N 55°29' W 005°56'1 8.5
2017-Dec-28 20:30N 55°27' W 005°56'5 9.4
2017-Dec-28 20:00N 55°22' W 005°54'4 8.9
2017-Dec-28 19:30N 55°18' W 005°53'4 8.3
2017-Dec-28 19:00N 55°14' W 005°51'5 7.7
2017-Dec-28 18:22N 55°09' W 005°48'13 6.8
2017-Dec-28 16:30N 54°57' W 005°42'3 6.9
2017-Dec-28 16:00N 54°54' W 005°41'3 6.4
2017-Dec-28 15:30N 54°51' W 005°40'3 6.1
2017-Dec-28 15:00N 54°48' W 005°40'3 6.3
2017-Dec-28 14:30N 54°45' W 005°41'2 4.8
2017-Dec-28 14:00N 54°43' W 005°45'0 0.0
2017-Dec-28 13:30N 54°43' W 005°45'0 0.0
2017-Dec-28 13:00N 54°43' W 005°45'0 0.0
2017-Dec-28 12:30N 54°43' W 005°45'0 0.0
2017-Dec-28 12:00N 54°43' W 005°45'0 0.0
2017-Dec-28 11:30N 54°43' W 005°45'0 0.0
2017-Dec-28 11:00N 54°43' W 005°45'0 0.0
2017-Dec-28 10:30N 54°43' W 005°45'0 0.0
2017-Dec-28 10:00N 54°43' W 005°45'0 0.0
2017-Dec-28 09:30N 54°43' W 005°45'0 0.0
2017-Dec-28 09:00N 54°43' W 005°45'0 0.0
2017-Dec-28 08:30N 54°43' W 005°45'0 0.0
2017-Dec-28 08:00N 54°43' W 005°45'0 0.0
2017-Dec-28 07:30N 54°43' W 005°45'0 0.6
2017-Dec-28 07:00N 54°43' W 005°44'3 5.1
2017-Dec-28 06:30N 54°45' W 005°41'3 5.9
2017-Dec-28 06:00N 54°48' W 005°40'5 9.1
2017-Dec-28 05:30N 54°52' W 005°40'13 9.5
2017-Dec-28 04:10N 55°05' W 005°45'2 9.9
2017-Dec-28 04:00N 55°06' W 005°45'510.0
2017-Dec-28 03:30N 55°11' W 005°47'5 9.9
2017-Dec-28 03:00N 55°16' W 005°49'510.9
2017-Dec-28 02:30N 55°21' W 005°52'5 9.8
2017-Dec-28 02:00N 55°26' W 005°54'5 9.2
2017-Dec-28 01:30N 55°30' W 005°56'4 9.0
2017-Dec-28 01:00N 55°35' W 005°57'5 9.1
2017-Dec-28 00:30N 55°39' W 005°59'6 9.3
2017-Dec-27 23:53N 55°45' W 006°01'47 8.4
2017-Dec-27 18:14N 56°30' W 005°36'3 9.3
2017-Dec-27 17:58N 56°32' W 005°33'5 9.4
2017-Dec-27 17:28N 56°36' W 005°27'4 9.4
2017-Dec-27 17:00N 56°39' W 005°22'510.0
2017-Dec-27 16:30N 56°42' W 005°15'510.1
2017-Dec-27 16:00N 56°47' W 005°11'  

Dump ship's entire track history